createdAt,value
2018-09-13T00:00:12.531Z,85.11
2018-09-13T00:02:41.241Z,85.49
2018-09-13T00:05:09.973Z,85.32
2018-09-13T00:07:38.743Z,84.99
2018-09-13T00:10:07.507Z,85.72
2018-09-13T00:12:36.170Z,85.54
2018-09-13T00:15:05.409Z,85.68
2018-09-13T00:17:34.139Z,85.77
2018-09-13T00:20:02.880Z,85.90
2018-09-13T00:22:31.551Z,85.53
2018-09-13T00:25:00.202Z,85.55
2018-09-13T00:27:28.958Z,85.46
2018-09-13T00:29:57.625Z,85.39
2018-09-13T00:32:26.300Z,85.55
2018-09-13T00:34:55.122Z,85.62
2018-09-13T00:37:23.804Z,85.81
2018-09-13T00:39:52.493Z,85.72
2018-09-13T00:42:21.191Z,85.71
2018-09-13T00:44:49.947Z,85.99
2018-09-13T00:47:18.617Z,86.15
2018-09-13T00:49:47.303Z,85.78
2018-09-13T00:52:15.988Z,85.74
2018-09-13T00:54:44.709Z,85.88
2018-09-13T00:57:13.392Z,86.28
2018-09-13T00:59:42.065Z,85.77
2018-09-13T01:02:10.736Z,85.82
2018-09-13T01:04:39.415Z,86.12
2018-09-13T01:07:08.134Z,86.31
2018-09-13T01:09:36.863Z,86.13
2018-09-13T01:12:05.597Z,86.32
2018-09-13T01:14:34.263Z,86.22
2018-09-13T01:17:02.953Z,86.08
2018-09-13T01:19:31.653Z,85.91
2018-09-13T01:22:00.295Z,86.17
2018-09-13T01:24:29.052Z,86.44
2018-09-13T01:26:57.729Z,86.13
2018-09-13T01:29:26.511Z,86.36
2018-09-13T01:31:55.221Z,86.40
2018-09-13T01:34:23.893Z,86.10
2018-09-13T01:36:52.896Z,86.49
2018-09-13T01:39:21.593Z,86.40
2018-09-13T01:41:50.311Z,86.64
2018-09-13T01:44:19.013Z,86.95
2018-09-13T01:46:47.698Z,86.46
2018-09-13T01:49:16.404Z,86.75
2018-09-13T01:51:45.121Z,86.45
2018-09-13T01:54:13.784Z,86.33
2018-09-13T01:56:42.440Z,87.05
2018-09-13T01:59:11.159Z,86.79
2018-09-13T02:01:39.833Z,86.87
2018-09-13T02:04:08.524Z,86.84
2018-09-13T02:06:37.199Z,86.67
2018-09-13T02:09:08.708Z,86.66
2018-09-13T02:11:37.376Z,86.77
2018-09-13T02:14:06.123Z,86.97
2018-09-13T02:16:34.873Z,87.02
2018-09-13T02:19:03.620Z,86.92
2018-09-13T02:21:32.318Z,87.38
2018-09-13T02:24:00.987Z,86.76
2018-09-13T02:26:29.633Z,87.41
2018-09-13T02:28:58.348Z,86.87
2018-09-13T02:31:27.152Z,87.10
2018-09-13T02:33:55.857Z,87.15
2018-09-13T02:36:24.528Z,87.15
2018-09-13T02:38:53.273Z,87.66
2018-09-13T02:41:21.939Z,87.70
2018-09-13T02:43:50.786Z,87.48
2018-09-13T02:46:19.455Z,87.34
2018-09-13T02:48:48.177Z,87.31
2018-09-13T02:51:16.965Z,87.65
2018-09-13T02:53:45.687Z,87.53
2018-09-13T02:56:14.341Z,87.85
2018-09-13T02:58:43.067Z,87.90
2018-09-13T03:01:11.771Z,87.49
2018-09-13T03:03:40.415Z,87.63
2018-09-13T03:06:09.184Z,87.43
2018-09-13T03:08:37.873Z,87.53
2018-09-13T03:11:06.572Z,88.10
2018-09-13T03:13:35.259Z,87.43
2018-09-13T03:16:03.928Z,87.60
2018-09-13T03:18:32.613Z,88.17
2018-09-13T03:21:01.301Z,87.94
2018-09-13T03:23:30.070Z,87.87
2018-09-13T03:25:58.736Z,88.24
2018-09-13T03:28:27.489Z,88.34
2018-09-13T03:30:56.188Z,88.01
2018-09-13T03:33:24.939Z,87.84
2018-09-13T03:35:53.622Z,88.15
2018-09-13T03:38:22.312Z,88.10
2018-09-13T03:40:50.996Z,88.12
2018-09-13T03:43:19.699Z,87.99
2018-09-13T03:45:48.504Z,88.33
2018-09-13T03:48:17.190Z,88.29
2018-09-13T03:50:45.844Z,88.14
2018-09-13T03:53:14.557Z,88.32
2018-09-13T03:55:43.227Z,88.22
2018-09-13T03:58:11.919Z,88.51
2018-09-13T04:00:40.622Z,88.42
2018-09-13T04:03:09.319Z,88.73
2018-09-13T04:05:38.073Z,88.83
2018-09-13T04:08:06.794Z,88.95
2018-09-13T04:10:35.523Z,89.25
2018-09-13T04:13:04.302Z,88.90
2018-09-13T04:15:32.972Z,89.20
2018-09-13T04:18:01.688Z,89.02
2018-09-13T04:20:30.331Z,89.20
2018-09-13T04:22:59.044Z,88.92
2018-09-13T04:25:27.832Z,89.41
2018-09-13T04:27:56.498Z,89.47
2018-09-13T04:30:25.206Z,89.06
2018-09-13T04:32:53.936Z,89.47
2018-09-13T04:35:22.702Z,89.52
2018-09-13T04:37:51.352Z,89.47
2018-09-13T04:40:20.026Z,89.69
2018-09-13T04:42:48.698Z,89.71
2018-09-13T04:45:17.384Z,89.94
2018-09-13T04:47:46.292Z,89.96
2018-09-13T04:50:14.978Z,89.38
2018-09-13T04:52:43.692Z,89.37
2018-09-13T04:55:12.353Z,89.85
2018-09-13T04:57:41.015Z,89.96
2018-09-13T05:00:09.834Z,90.01
2018-09-13T05:02:38.804Z,89.94
2018-09-13T05:05:07.598Z,90.52
2018-09-13T05:07:36.299Z,90.34
2018-09-13T05:10:05.025Z,90.40
2018-09-13T05:12:33.703Z,90.89
2018-09-13T05:15:02.415Z,90.47
2018-09-13T05:17:31.071Z,90.92
2018-09-13T05:19:59.737Z,91.04
2018-09-13T05:22:28.497Z,91.26
2018-09-13T05:24:57.195Z,90.85
2018-09-13T05:27:25.864Z,91.45
2018-09-13T05:29:54.516Z,91.33
2018-09-13T05:32:23.140Z,90.99
2018-09-13T05:34:51.825Z,91.16
2018-09-13T05:37:20.502Z,91.32
2018-09-13T05:39:49.185Z,91.54
2018-09-13T05:42:17.890Z,91.58
2018-09-13T05:44:46.612Z,91.74
2018-09-13T05:47:15.281Z,91.97
2018-09-13T05:49:44.132Z,91.62
2018-09-13T05:52:13.058Z,91.77
2018-09-13T05:54:41.780Z,91.67
2018-09-13T05:57:10.468Z,92.18
2018-09-13T05:59:39.191Z,92.35
2018-09-13T06:02:07.910Z,92.24
2018-09-13T06:04:36.600Z,92.13
2018-09-13T06:07:05.291Z,91.92
2018-09-13T06:09:34.135Z,92.52
2018-09-13T06:12:02.829Z,92.15
2018-09-13T06:14:31.512Z,92.21
2018-09-13T06:17:00.231Z,92.25
2018-09-13T06:19:28.900Z,92.30
2018-09-13T06:21:57.548Z,92.13
2018-09-13T06:24:26.320Z,92.18
2018-09-13T06:26:55.057Z,92.83
2018-09-13T06:29:23.806Z,92.73
2018-09-13T06:31:52.482Z,92.91
2018-09-13T06:34:21.154Z,92.42
2018-09-13T06:36:49.840Z,92.87
2018-09-13T06:39:18.524Z,93.18
2018-09-13T06:41:47.203Z,92.86
2018-09-13T06:44:15.888Z,92.63
2018-09-13T06:46:44.683Z,93.26
2018-09-13T06:49:13.501Z,93.39
2018-09-13T06:51:42.399Z,93.13
2018-09-13T06:54:11.357Z,93.30
2018-09-13T06:56:40.105Z,93.07
2018-09-13T06:59:08.889Z,92.93
2018-09-13T07:01:37.687Z,93.50
2018-09-13T07:04:06.620Z,93.35
2018-09-13T07:06:35.483Z,93.85
2018-09-13T07:09:05.157Z,93.99
2018-09-13T07:11:33.911Z,93.88
2018-09-13T07:14:02.645Z,94.21
2018-09-13T07:16:31.836Z,93.81
2018-09-13T07:19:00.669Z,94.08
2018-09-13T07:21:29.507Z,94.13
2018-09-13T07:23:59.680Z,94.01
2018-09-13T07:26:28.682Z,94.72
2018-09-13T07:28:57.552Z,94.53
2018-09-13T07:31:26.352Z,94.46
2018-09-13T07:33:55.101Z,94.30
2018-09-13T07:36:23.808Z,94.72
2018-09-13T07:38:52.534Z,94.80
2018-09-13T07:41:21.252Z,94.80
2018-09-13T07:43:49.904Z,94.43
2018-09-13T07:46:18.627Z,94.60
2018-09-13T07:48:47.301Z,94.22
2018-09-13T07:51:16.039Z,94.24
2018-09-13T07:53:44.754Z,94.73
2018-09-13T07:56:13.478Z,94.24
2018-09-13T07:58:42.147Z,94.21
2018-09-13T08:01:10.856Z,94.06
2018-09-13T08:03:39.583Z,94.32
2018-09-13T08:06:08.709Z,94.70
2018-09-13T08:08:37.406Z,94.29
2018-09-13T08:11:06.163Z,94.78
2018-09-13T08:13:34.881Z,94.66
2018-09-13T08:16:03.583Z,94.73
2018-09-13T08:18:32.272Z,94.34
2018-09-13T08:21:00.999Z,94.52
2018-09-13T08:23:29.664Z,94.49
2018-09-13T08:25:58.422Z,94.53
2018-09-13T08:28:27.110Z,94.67
2018-09-13T08:30:55.799Z,94.62
2018-09-13T08:33:24.581Z,94.56
2018-09-13T08:35:53.299Z,94.35
2018-09-13T08:38:21.999Z,94.44
2018-09-13T08:40:50.746Z,94.43
2018-09-13T08:43:19.428Z,94.81
2018-09-13T08:45:48.128Z,94.74
2018-09-13T08:48:16.822Z,94.76
2018-09-13T08:50:45.499Z,94.97
2018-09-13T08:53:14.177Z,94.54
2018-09-13T08:55:42.862Z,94.54
2018-09-13T08:58:11.532Z,94.84
2018-09-13T09:00:40.261Z,93.65
2018-09-13T09:03:08.949Z,93.40
2018-09-13T09:05:37.610Z,93.40
2018-09-13T09:08:06.321Z,93.39
2018-09-13T09:10:35.061Z,93.62
2018-09-13T09:13:03.759Z,93.46
2018-09-13T09:15:33.322Z,92.82
2018-09-13T09:18:02.025Z,93.13
2018-09-13T09:20:30.735Z,92.94
2018-09-13T09:22:59.413Z,93.57
2018-09-13T09:25:28.164Z,92.67
2018-09-13T09:27:56.833Z,92.11
2018-09-13T09:30:25.596Z,91.88
2018-09-13T09:32:54.295Z,91.93
2018-09-13T09:35:22.976Z,91.22
2018-09-13T09:37:51.652Z,91.66
2018-09-13T09:40:20.332Z,91.24
2018-09-13T09:42:49.001Z,90.52
2018-09-13T09:45:17.668Z,89.62
2018-09-13T09:47:46.374Z,87.89
2018-09-13T09:50:15.115Z,84.92
2018-09-13T09:52:43.812Z,83.36
2018-09-13T09:55:12.523Z,81.77
2018-09-13T09:57:42.553Z,81.79
2018-09-13T10:00:11.321Z,80.27
2018-09-13T10:02:39.996Z,78.62
2018-09-13T10:05:08.712Z,78.36
2018-09-13T10:07:37.403Z,77.86
2018-09-13T10:10:06.109Z,77.25
2018-09-13T10:12:34.792Z,76.13
2018-09-13T10:15:08.771Z,75.76
2018-09-13T10:17:42.600Z,75.34
2018-09-13T10:20:16.399Z,75.50
2018-09-13T10:22:50.207Z,75.58
2018-09-13T10:25:24.132Z,75.54
2018-09-13T10:27:58.021Z,74.00
2018-09-13T10:30:31.956Z,74.07
2018-09-13T10:33:05.676Z,74.56
2018-09-13T10:35:39.660Z,72.98
2018-09-13T10:38:13.415Z,71.24
2018-09-13T10:40:47.360Z,70.71
2018-09-13T10:43:21.094Z,69.88
2018-09-13T10:45:55.036Z,69.82
2018-09-13T10:48:26.804Z,69.11
2018-09-13T10:51:00.549Z,68.39
2018-09-13T10:53:35.320Z,67.34
2018-09-13T10:56:04.464Z,66.17
2018-09-13T10:58:33.312Z,65.06
2018-09-13T11:01:01.985Z,64.09
2018-09-13T11:03:30.741Z,63.18
2018-09-13T11:05:59.508Z,63.11
2018-09-13T11:08:28.236Z,62.61
2018-09-13T11:10:57.136Z,62.04
2018-09-13T11:14:03.892Z,62.09
2018-09-13T11:16:32.589Z,62.32
2018-09-13T11:19:01.281Z,63.38
2018-09-13T11:21:29.944Z,63.49
2018-09-13T11:23:58.628Z,63.13
2018-09-13T11:26:27.309Z,62.32
2018-09-13T11:28:56.028Z,62.41
2018-09-13T11:31:24.718Z,62.32
2018-09-13T11:33:53.406Z,62.13
2018-09-13T11:36:22.099Z,62.18
2018-09-13T11:38:50.852Z,62.81
2018-09-13T11:41:19.803Z,62.95
2018-09-13T11:43:48.576Z,63.64
2018-09-13T11:46:17.247Z,63.54
2018-09-13T11:48:45.963Z,63.16
2018-09-13T11:51:14.615Z,62.28
2018-09-13T11:53:43.314Z,62.83
2018-09-13T11:56:12.061Z,63.03
2018-09-13T11:58:40.793Z,63.05
2018-09-13T12:01:09.582Z,62.91
2018-09-13T12:03:38.268Z,62.12
2018-09-13T12:06:07.023Z,62.04
2018-09-13T12:08:35.729Z,62.66
2018-09-13T12:11:04.421Z,62.94
2018-09-13T12:13:33.091Z,64.14
2018-09-13T12:16:01.760Z,63.66
2018-09-13T12:18:30.536Z,62.54
2018-09-13T12:20:59.198Z,62.00
2018-09-13T12:23:27.957Z,62.04
2018-09-13T12:25:56.620Z,61.62
2018-09-13T12:28:25.311Z,61.99
2018-09-13T12:30:54.011Z,61.73
2018-09-13T12:33:22.701Z,61.55
2018-09-13T12:35:51.367Z,60.16
2018-09-13T12:38:20.056Z,59.85
2018-09-13T12:40:48.748Z,58.99
2018-09-13T12:43:17.405Z,59.28
2018-09-13T12:45:46.100Z,58.45
2018-09-13T12:48:14.732Z,58.26
2018-09-13T12:50:43.488Z,57.42
2018-09-13T12:53:12.297Z,56.68
2018-09-13T12:55:46.218Z,56.49
2018-09-13T12:58:14.869Z,56.25
2018-09-13T13:00:43.552Z,56.44
2018-09-13T13:03:12.284Z,56.45
2018-09-13T13:05:40.939Z,56.42
2018-09-13T13:08:09.628Z,56.70
2018-09-13T13:10:38.325Z,56.37
2018-09-13T13:13:07.008Z,55.96
2018-09-13T13:15:35.661Z,56.25
2018-09-13T13:18:04.436Z,55.25
2018-09-13T13:20:33.103Z,55.38
2018-09-13T13:23:01.765Z,55.49
2018-09-13T13:25:30.479Z,53.97
2018-09-13T13:27:59.185Z,53.93
2018-09-13T13:30:27.956Z,53.15
2018-09-13T13:32:56.629Z,53.69
2018-09-13T13:35:25.291Z,54.07
2018-09-13T13:37:53.963Z,54.45
2018-09-13T13:40:22.789Z,54.85
2018-09-13T13:42:52.640Z,54.82
2018-09-13T13:45:21.448Z,53.85
2018-09-13T13:47:50.124Z,53.49
2018-09-13T13:50:18.859Z,53.51
2018-09-13T13:52:47.567Z,52.63
2018-09-13T13:55:16.268Z,51.70
2018-09-13T13:57:44.960Z,51.74
2018-09-13T14:00:13.727Z,51.79
2018-09-13T14:02:42.364Z,50.53
2018-09-13T14:05:11.717Z,51.07
2018-09-13T14:07:40.397Z,51.56
2018-09-13T14:10:09.148Z,52.55
2018-09-13T14:12:37.775Z,52.51
2018-09-13T14:15:07.113Z,52.16
2018-09-13T14:17:35.889Z,52.10
2018-09-13T14:20:04.620Z,51.73
2018-09-13T14:22:33.880Z,51.49
2018-09-13T14:25:02.565Z,51.25
2018-09-13T14:27:31.251Z,51.59
2018-09-13T14:29:59.965Z,51.00
2018-09-13T14:32:28.735Z,50.96
2018-09-13T14:34:57.404Z,50.87
2018-09-13T14:37:26.521Z,51.33
2018-09-13T14:39:55.299Z,51.17
2018-09-13T14:42:24.116Z,50.92
2018-09-13T14:44:52.827Z,51.63
2018-09-13T14:47:21.488Z,52.06
2018-09-13T14:49:50.135Z,52.27
2018-09-13T14:52:18.815Z,51.43
2018-09-13T14:54:47.502Z,50.99
2018-09-13T14:57:16.322Z,51.69
2018-09-13T14:59:44.995Z,52.10
2018-09-13T15:02:13.676Z,52.36
2018-09-13T15:04:42.400Z,52.72
2018-09-13T15:07:11.107Z,52.85
2018-09-13T15:09:39.715Z,53.11
2018-09-13T15:12:08.402Z,52.56
2018-09-13T15:14:37.092Z,51.93
2018-09-13T15:17:05.928Z,52.38
2018-09-13T15:19:34.932Z,51.98
2018-09-13T15:22:03.686Z,51.58
2018-09-13T15:24:32.475Z,52.54
2018-09-13T15:27:01.099Z,52.99
2018-09-13T15:29:29.835Z,54.28
2018-09-13T15:31:58.495Z,54.81
2018-09-13T15:34:27.378Z,54.72
2018-09-13T15:36:56.234Z,54.84
2018-09-13T15:39:25.112Z,56.51
2018-09-13T15:41:53.938Z,59.76
2018-09-13T15:44:22.860Z,61.32
2018-09-13T15:46:51.634Z,62.51
2018-09-13T15:49:20.424Z,63.46
2018-09-13T15:51:49.272Z,63.99
2018-09-13T15:54:18.000Z,64.23
2018-09-13T15:56:46.695Z,64.32
2018-09-13T15:59:15.556Z,64.75
2018-09-13T16:01:44.620Z,65.22
2018-09-13T16:04:13.377Z,64.93
2018-09-13T16:06:42.303Z,64.94
2018-09-13T16:09:11.283Z,64.67
2018-09-13T16:11:40.225Z,64.79
2018-09-13T16:14:09.048Z,64.93
2018-09-13T16:16:38.007Z,65.31
2018-09-13T16:19:07.266Z,65.07
2018-09-13T16:21:36.070Z,65.28
2018-09-13T16:24:04.976Z,64.85
2018-09-13T16:26:33.803Z,65.17
2018-09-13T16:29:02.517Z,64.81
2018-09-13T16:31:31.319Z,65.08
2018-09-13T16:34:00.238Z,65.10
2018-09-13T16:36:30.419Z,65.40
2018-09-13T16:39:04.439Z,65.88
2018-09-13T16:41:41.779Z,66.33
2018-09-13T16:44:14.652Z,66.52
2018-09-13T16:46:48.500Z,66.70
2018-09-13T16:49:17.207Z,67.04
2018-09-13T16:51:45.985Z,67.62
2018-09-13T16:54:14.694Z,69.02
2018-09-13T16:56:43.408Z,68.82
2018-09-13T16:59:12.094Z,67.94
2018-09-13T17:01:40.779Z,65.98
2018-09-13T17:04:09.436Z,63.65
2018-09-13T17:06:38.141Z,61.53
2018-09-13T17:09:09.185Z,60.94
2018-09-13T17:11:37.988Z,60.09
2018-09-13T17:14:06.713Z,59.04
2018-09-13T17:16:35.558Z,58.78
2018-09-13T17:19:04.332Z,58.83
2018-09-13T17:21:33.074Z,58.21
2018-09-13T17:24:01.811Z,58.43
2018-09-13T17:26:30.723Z,58.95
2018-09-13T17:28:59.922Z,59.40
2018-09-13T17:31:28.660Z,59.88
2018-09-13T17:33:57.731Z,60.67
2018-09-13T17:36:26.710Z,61.49
2018-09-13T17:38:55.540Z,61.82
2018-09-13T17:41:24.304Z,62.58
2018-09-13T17:43:53.339Z,63.19
2018-09-13T17:46:22.027Z,63.80
2018-09-13T17:48:50.931Z,64.74
2018-09-13T17:51:19.707Z,65.21
2018-09-13T17:53:48.417Z,65.63
2018-09-13T17:56:17.268Z,66.18
2018-09-13T17:58:46.008Z,66.64
2018-09-13T18:01:14.801Z,67.11
2018-09-13T18:03:43.694Z,68.20
2018-09-13T18:06:12.404Z,68.71
2018-09-13T18:08:41.176Z,68.83
2018-09-13T18:11:10.156Z,69.37
2018-09-13T18:13:39.076Z,69.69
2018-09-13T18:16:07.894Z,69.83
2018-09-13T18:18:36.747Z,70.23
2018-09-13T18:21:05.760Z,70.23
2018-09-13T18:23:34.539Z,70.05
2018-09-13T18:26:03.328Z,70.02
2018-09-13T18:28:32.112Z,70.31
2018-09-13T18:31:00.908Z,70.15
2018-09-13T18:33:29.709Z,70.47
2018-09-13T18:35:58.765Z,70.80
2018-09-13T18:38:27.714Z,70.67
2018-09-13T18:40:56.515Z,71.49
2018-09-13T18:43:25.328Z,71.67
2018-09-13T18:45:54.280Z,72.49
2018-09-13T18:48:22.967Z,72.67
2018-09-13T18:50:51.655Z,72.89
2018-09-13T18:53:20.329Z,73.00
2018-09-13T18:55:49.114Z,72.90
2018-09-13T18:58:17.869Z,72.95
2018-09-13T19:00:46.845Z,73.17
2018-09-13T19:03:15.512Z,73.49
2018-09-13T19:05:44.268Z,73.90
2018-09-13T19:08:13.071Z,74.70
2018-09-13T19:10:41.854Z,75.14
2018-09-13T19:13:10.563Z,75.43
2018-09-13T19:15:39.320Z,75.65
2018-09-13T19:18:08.033Z,75.24
2018-09-13T19:20:36.732Z,75.16
2018-09-13T19:23:05.639Z,75.04
2018-09-13T19:25:34.371Z,74.56
2018-09-13T19:28:03.116Z,74.39
2018-09-13T19:30:31.815Z,74.52
2018-09-13T19:33:00.516Z,74.27
2018-09-13T19:35:29.236Z,74.31
2018-09-13T19:37:57.932Z,74.26
2018-09-13T19:40:26.720Z,74.50
2018-09-13T19:42:55.506Z,74.57
2018-09-13T19:45:24.472Z,74.72
2018-09-13T19:47:53.184Z,74.99
2018-09-13T19:50:21.939Z,75.19
2018-09-13T19:52:50.563Z,75.27
2018-09-13T19:55:19.265Z,75.39
2018-09-13T19:57:47.952Z,75.53
2018-09-13T20:00:16.704Z,75.42
2018-09-13T20:02:45.405Z,76.00
2018-09-13T20:05:14.078Z,76.22
2018-09-13T20:07:42.816Z,76.64
2018-09-13T20:10:11.533Z,77.22
2018-09-13T20:12:40.275Z,77.41
2018-09-13T20:15:08.982Z,78.08
2018-09-13T20:17:37.744Z,78.44
2018-09-13T20:20:06.573Z,78.63
2018-09-13T20:22:35.301Z,78.75
2018-09-13T20:25:04.058Z,78.54
2018-09-13T20:27:32.736Z,78.24
2018-09-13T20:30:01.435Z,77.32
2018-09-13T20:32:30.132Z,76.33
2018-09-13T20:34:58.833Z,76.19
2018-09-13T20:37:27.560Z,75.63
2018-09-13T20:39:56.260Z,75.11
2018-09-13T20:42:24.964Z,74.95
2018-09-13T20:44:53.669Z,74.65
2018-09-13T20:47:22.359Z,74.63
2018-09-13T20:49:51.132Z,74.56
2018-09-13T20:52:19.840Z,74.56
2018-09-13T20:54:48.575Z,74.62
2018-09-13T20:57:17.270Z,75.21
2018-09-13T20:59:45.992Z,77.07
2018-09-13T21:02:14.745Z,77.55
2018-09-13T21:04:43.471Z,78.90
2018-09-13T21:07:12.261Z,79.84
2018-09-13T21:09:40.967Z,80.39
2018-09-13T21:12:09.693Z,80.73
2018-09-13T21:14:38.391Z,80.76
2018-09-13T21:17:07.312Z,79.67
2018-09-13T21:19:36.009Z,79.99
2018-09-13T21:22:04.722Z,79.85
2018-09-13T21:24:33.488Z,79.76
2018-09-13T21:27:02.197Z,79.42
2018-09-13T21:29:30.888Z,78.85
2018-09-13T21:31:59.577Z,78.78
2018-09-13T21:34:28.325Z,78.58
2018-09-13T21:36:57.013Z,78.36
2018-09-13T21:39:25.713Z,78.59
2018-09-13T21:41:54.415Z,78.71
2018-09-13T21:44:23.113Z,78.68
2018-09-13T21:46:51.775Z,78.87
2018-09-13T21:49:20.469Z,78.96
2018-09-13T21:51:49.227Z,79.07
2018-09-13T21:54:17.948Z,79.23
2018-09-13T21:56:46.640Z,79.55
2018-09-13T21:59:15.376Z,79.54
2018-09-13T22:01:44.082Z,79.81
2018-09-13T22:04:12.773Z,79.93
2018-09-13T22:06:41.476Z,80.23
2018-09-13T22:09:10.895Z,80.35
2018-09-13T22:11:40.945Z,80.39
2018-09-13T22:14:09.710Z,80.55
2018-09-13T22:16:38.624Z,80.11
2018-09-13T22:19:07.395Z,79.85
2018-09-13T22:21:36.169Z,79.54
2018-09-13T22:24:05.567Z,79.29
2018-09-13T22:26:35.143Z,79.35
2018-09-13T22:29:04.129Z,79.13
2018-09-13T22:31:33.150Z,79.17
2018-09-13T22:34:02.103Z,79.45
2018-09-13T22:36:30.820Z,79.48
2018-09-13T22:38:59.520Z,79.50
2018-09-13T22:41:28.183Z,79.51
2018-09-13T22:43:56.871Z,79.57
2018-09-13T22:46:25.549Z,79.38
2018-09-13T22:48:54.227Z,79.49
2018-09-13T22:51:22.935Z,79.44
2018-09-13T22:53:51.641Z,79.42
2018-09-13T22:56:20.334Z,79.41
2018-09-13T22:58:49.028Z,79.91
2018-09-13T23:01:17.735Z,79.76
2018-09-13T23:03:46.412Z,79.87
2018-09-13T23:06:15.182Z,79.71
2018-09-13T23:08:43.912Z,79.90
2018-09-13T23:11:12.612Z,80.01
2018-09-13T23:13:41.291Z,80.14
2018-09-13T23:16:10.057Z,79.98
2018-09-13T23:18:38.738Z,78.72
2018-09-13T23:21:07.425Z,78.85
2018-09-13T23:23:36.119Z,77.50
2018-09-13T23:26:04.855Z,76.93
2018-09-13T23:28:33.563Z,76.83
2018-09-13T23:31:02.255Z,76.56
2018-09-13T23:33:30.936Z,76.75
2018-09-13T23:35:59.633Z,77.02
2018-09-13T23:38:28.396Z,77.76
2018-09-13T23:40:57.134Z,77.91
2018-09-13T23:43:25.826Z,78.15
2018-09-13T23:45:54.524Z,78.49
2018-09-13T23:48:23.229Z,78.92
2018-09-13T23:50:51.989Z,79.08
2018-09-13T23:53:21.519Z,79.44
2018-09-13T23:55:50.701Z,80.04
2018-09-13T23:58:19.407Z,80.24
